createdAt,value
2022-08-27T00:01:52.497Z,36.87
2022-08-27T00:04:20.361Z,35.23
2022-08-27T00:06:48.268Z,36.73
2022-08-27T00:09:15.986Z,41.07
2022-08-27T00:11:51.547Z,41.57
2022-08-27T00:14:20.602Z,45.37
2022-08-27T00:16:48.317Z,45.57
2022-08-27T00:19:16.218Z,41.10
2022-08-27T00:21:43.932Z,35.20
2022-08-27T00:24:12.428Z,36.30
2022-08-27T00:26:43.370Z,28.40
2022-08-27T00:29:11.416Z,27.43
2022-08-27T00:31:40.665Z,26.93
2022-08-27T00:34:09.115Z,26.33
2022-08-27T00:36:41.215Z,27.57
2022-08-27T00:39:08.966Z,26.67
2022-08-27T00:41:36.861Z,31.43
2022-08-27T00:44:06.315Z,34.37
2022-08-27T00:46:38.744Z,32.60
2022-08-27T00:49:11.044Z,30.70
2022-08-27T00:51:39.812Z,36.77
2022-08-27T00:54:09.476Z,32.37
2022-08-27T00:56:44.306Z,32.10
2022-08-27T00:59:19.557Z,37.33
2022-08-27T01:02:05.732Z,39.53
2022-08-27T01:04:36.764Z,37.10
2022-08-27T01:07:05.069Z,40.40
2022-08-27T01:09:33.673Z,37.67
2022-08-27T01:12:01.427Z,36.10
2022-08-27T01:14:29.459Z,41.30
2022-08-27T01:16:59.767Z,34.83
2022-08-27T01:19:34.098Z,41.83
2022-08-27T01:22:10.233Z,44.63
2022-08-27T01:24:51.751Z,38.93
2022-08-27T01:27:21.989Z,43.43
2022-08-27T01:29:50.251Z,42.73
2022-08-27T01:32:20.800Z,45.53
2022-08-27T01:34:49.440Z,44.40
2022-08-27T01:37:23.666Z,41.43
2022-08-27T01:39:55.560Z,43.40
2022-08-27T01:42:26.463Z,38.33
2022-08-27T01:44:57.204Z,42.57
2022-08-27T01:47:30.778Z,40.23
2022-08-27T01:49:59.740Z,41.07
2022-08-27T01:52:29.838Z,40.50
2022-08-27T01:54:59.176Z,35.60
2022-08-27T01:57:27.345Z,39.93
2022-08-27T01:59:58.039Z,40.00
2022-08-27T02:02:26.590Z,39.27
2022-08-27T02:04:54.537Z,43.20
2022-08-27T02:07:22.413Z,42.00
2022-08-27T02:09:50.303Z,37.57
2022-08-27T02:12:19.377Z,45.50
2022-08-27T02:14:47.197Z,39.40
2022-08-27T02:17:15.146Z,42.30
2022-08-27T02:19:43.001Z,43.20
2022-08-27T02:22:10.765Z,45.03
2022-08-27T02:24:38.570Z,41.47
2022-08-27T02:27:06.447Z,37.33
2022-08-27T02:29:36.026Z,39.73
2022-08-27T02:32:04.368Z,40.23
2022-08-27T02:34:32.112Z,36.40
2022-08-27T02:36:59.887Z,40.37
2022-08-27T02:39:27.644Z,42.07
2022-08-27T02:41:55.735Z,39.77
2022-08-27T02:44:23.498Z,36.33
2022-08-27T02:46:53.656Z,40.40
2022-08-27T02:49:21.599Z,37.07
2022-08-27T02:51:49.333Z,38.83
2022-08-27T02:54:17.632Z,37.57
2022-08-27T02:56:45.449Z,34.47
2022-08-27T02:59:13.196Z,37.27
2022-08-27T03:01:40.982Z,34.00
2022-08-27T03:04:10.152Z,34.03
2022-08-27T03:06:37.890Z,37.47
2022-08-27T03:09:05.935Z,37.57
2022-08-27T03:11:33.796Z,38.27
2022-08-27T03:14:01.559Z,35.53
2022-08-27T03:16:29.545Z,36.23
2022-08-27T03:18:56.313Z,40.63
2022-08-27T03:21:26.503Z,37.43
2022-08-27T03:23:54.764Z,36.90
2022-08-27T03:26:23.016Z,37.67
2022-08-27T03:28:50.960Z,39.47
2022-08-27T03:31:26.859Z,39.33
2022-08-27T03:33:56.397Z,38.77
2022-08-27T03:36:25.584Z,34.10
2022-08-27T03:38:53.770Z,30.80
2022-08-27T03:41:22.342Z,28.87
2022-08-27T03:43:52.898Z,29.80
2022-08-27T03:46:22.881Z,37.67
2022-08-27T03:48:53.821Z,38.63
2022-08-27T03:51:26.551Z,30.67
2022-08-27T03:53:54.272Z,27.50
2022-08-27T03:56:22.151Z,27.20
2022-08-27T03:58:50.026Z,26.60
2022-08-27T04:01:18.053Z,29.53
2022-08-27T04:03:45.768Z,30.20
2022-08-27T04:06:13.470Z,28.73
2022-08-27T04:08:42.605Z,29.47
2022-08-27T04:11:10.350Z,33.10
2022-08-27T04:13:38.070Z,27.90
2022-08-27T04:16:06.889Z,28.77
2022-08-27T04:18:35.237Z,31.83
2022-08-27T04:21:09.110Z,26.67
2022-08-27T04:23:36.813Z,28.53
2022-08-27T04:26:07.810Z,27.37
2022-08-27T04:28:38.694Z,36.17
2022-08-27T04:31:12.861Z,33.60
2022-08-27T04:33:50.741Z,35.47
2022-08-27T04:36:19.030Z,43.60
2022-08-27T04:38:46.790Z,43.07
2022-08-27T04:41:22.383Z,45.37
2022-08-27T04:43:52.530Z,42.70
2022-08-27T04:46:22.367Z,46.77
2022-08-27T04:48:50.167Z,53.00
2022-08-27T04:51:17.950Z,47.93
2022-08-27T04:53:46.412Z,51.53
2022-08-27T04:56:17.745Z,51.33
2022-08-27T04:58:45.972Z,57.87
2022-08-27T05:01:17.200Z,50.03
2022-08-27T05:03:45.226Z,52.67
2022-08-27T05:06:13.739Z,57.47
2022-08-27T05:08:42.343Z,58.77
2022-08-27T05:11:13.055Z,52.47
2022-08-27T05:13:42.392Z,55.40
2022-08-27T05:16:13.387Z,54.90
2022-08-27T05:18:48.227Z,59.53
2022-08-27T05:21:22.336Z,55.37
2022-08-27T05:23:50.805Z,52.67
2022-08-27T05:26:19.262Z,57.93
2022-08-27T05:28:48.416Z,55.53
2022-08-27T05:31:17.361Z,53.53
2022-08-27T05:33:45.509Z,53.37
2022-08-27T05:36:17.372Z,52.87
2022-08-27T05:38:45.818Z,50.30
2022-08-27T05:41:14.920Z,53.93
2022-08-27T05:43:47.720Z,52.23
2022-08-27T05:46:20.261Z,54.40
2022-08-27T05:48:48.226Z,55.50
2022-08-27T05:51:25.962Z,48.90
2022-08-27T05:53:56.773Z,47.87
2022-08-27T05:56:26.829Z,50.17
2022-08-27T05:59:12.544Z,54.67
2022-08-27T06:01:44.895Z,55.63
2022-08-27T06:04:17.574Z,48.50
2022-08-27T06:06:46.681Z,50.13
2022-08-27T06:09:17.097Z,53.97
2022-08-27T06:11:46.414Z,47.20
2022-08-27T06:14:14.371Z,48.27
2022-08-27T06:16:44.046Z,56.70
2022-08-27T06:19:13.169Z,53.17
2022-08-27T06:21:41.279Z,62.80
2022-08-27T06:24:12.156Z,51.73
2022-08-27T06:26:40.736Z,50.33
2022-08-27T06:29:10.025Z,58.33
2022-08-27T06:31:38.809Z,53.73
2022-08-27T06:34:11.207Z,59.43
2022-08-27T06:36:41.278Z,55.90
2022-08-27T06:39:13.263Z,56.83
2022-08-27T06:41:42.950Z,57.37
2022-08-27T06:44:11.177Z,52.93
2022-08-27T06:46:39.438Z,48.10
2022-08-27T06:49:09.179Z,49.80
2022-08-27T06:51:39.203Z,48.93
2022-08-27T06:54:09.886Z,54.70
2022-08-27T06:56:37.697Z,52.40
2022-08-27T06:59:11.615Z,48.13
2022-08-27T07:01:42.554Z,52.03
2022-08-27T07:04:14.961Z,46.93
2022-08-27T07:06:43.665Z,46.90
2022-08-27T07:09:12.203Z,44.80
2022-08-27T07:11:40.218Z,50.10
2022-08-27T07:14:09.107Z,52.63
2022-08-27T07:16:37.572Z,46.30
2022-08-27T07:19:08.633Z,49.00
2022-08-27T07:21:40.209Z,48.93
2022-08-27T07:24:09.194Z,48.50
2022-08-27T07:26:40.648Z,43.80
2022-08-27T07:29:11.360Z,50.80
2022-08-27T07:31:39.965Z,46.10
2022-08-27T07:34:08.787Z,48.67
2022-08-27T07:36:37.765Z,54.47
2022-08-27T07:39:07.082Z,50.40
2022-08-27T07:41:57.297Z,54.27
2022-08-27T07:44:34.274Z,58.97
2022-08-27T07:47:02.743Z,45.53
2022-08-27T07:49:31.855Z,51.27
2022-08-27T07:52:00.758Z,57.30
2022-08-27T07:54:30.042Z,52.93
2022-08-27T07:56:57.885Z,58.47
2022-08-27T07:59:27.191Z,50.97
2022-08-27T08:01:56.068Z,51.83
2022-08-27T08:04:24.294Z,53.07
2022-08-27T08:06:52.647Z,51.00
2022-08-27T08:09:22.134Z,48.23
2022-08-27T08:11:52.233Z,55.90
2022-08-27T08:14:20.635Z,53.97
2022-08-27T08:16:48.435Z,54.43
2022-08-27T08:19:16.361Z,50.80
2022-08-27T08:21:44.168Z,52.67
2022-08-27T08:24:12.038Z,60.43
2022-08-27T08:26:41.937Z,59.37
2022-08-27T08:29:13.824Z,57.03
2022-08-27T08:31:45.675Z,54.00
2022-08-27T08:34:19.077Z,60.90
2022-08-27T08:36:51.100Z,52.77
2022-08-27T08:39:22.530Z,58.13
2022-08-27T08:41:53.374Z,58.97
2022-08-27T08:44:31.878Z,58.00
2022-08-27T08:47:04.510Z,60.33
2022-08-27T08:49:39.483Z,71.93
2022-08-27T08:52:30.469Z,59.03
2022-08-27T08:55:08.574Z,65.27
2022-08-27T08:57:42.121Z,66.07
2022-08-27T09:00:14.223Z,66.20
2022-08-27T09:02:50.477Z,66.27
2022-08-27T09:05:18.534Z,66.50
2022-08-27T09:07:51.890Z,69.80
2022-08-27T09:10:26.597Z,72.43
2022-08-27T09:12:59.971Z,66.60
2022-08-27T09:15:32.749Z,52.17
2022-08-27T09:18:10.127Z,54.90
2022-08-27T09:20:46.209Z,56.83
2022-08-27T09:23:22.214Z,59.07
2022-08-27T09:25:49.942Z,50.47
2022-08-27T09:28:42.241Z,46.13
2022-08-27T09:31:14.517Z,41.53
2022-08-27T09:33:54.811Z,30.60
2022-08-27T09:36:25.758Z,28.73
2022-08-27T09:38:58.772Z,23.70
2022-08-27T09:41:31.116Z,23.87
2022-08-27T09:44:01.394Z,26.93
2022-08-27T09:46:31.224Z,26.03
2022-08-27T09:48:59.084Z,25.90
2022-08-27T09:51:30.334Z,27.90
2022-08-27T09:54:00.207Z,28.20
2022-08-27T09:56:33.051Z,28.40
2022-08-27T09:59:04.885Z,24.57
2022-08-27T10:01:36.700Z,24.70
2022-08-27T10:04:10.553Z,24.80
2022-08-27T10:06:45.275Z,24.70
2022-08-27T10:09:18.587Z,26.83
2022-08-27T10:11:51.693Z,23.43
2022-08-27T10:14:29.519Z,25.63
2022-08-27T10:17:11.752Z,20.40
2022-08-27T10:19:57.860Z,23.90
2022-08-27T10:22:41.185Z,22.67
2022-08-27T10:25:27.292Z,21.80
2022-08-27T10:28:04.876Z,21.93
2022-08-27T10:30:48.238Z,22.73
2022-08-27T10:33:23.861Z,20.70
2022-08-27T10:36:02.232Z,23.67
2022-08-27T10:38:42.468Z,27.73
2022-08-27T10:41:17.858Z,26.60
2022-08-27T10:44:24.114Z,26.60
2022-08-27T10:47:14.755Z,30.00
2022-08-27T10:49:53.763Z,28.67
2022-08-27T10:52:27.146Z,26.87
2022-08-27T10:55:01.475Z,31.17
2022-08-27T10:57:56.731Z,32.50
2022-08-27T11:00:40.080Z,27.80
2022-08-27T11:03:13.750Z,31.17
2022-08-27T11:05:46.314Z,28.17
2022-08-27T11:08:18.350Z,32.70
2022-08-27T11:10:50.145Z,28.70
2022-08-27T11:13:27.189Z,32.60
2022-08-27T11:15:56.971Z,37.63
2022-08-27T11:18:40.567Z,36.07
2022-08-27T11:21:18.075Z,31.60
2022-08-27T11:23:49.398Z,32.47
2022-08-27T11:26:17.870Z,35.30
2022-08-27T11:28:49.563Z,34.00
2022-08-27T11:31:24.018Z,37.77
2022-08-27T11:34:01.065Z,34.80
2022-08-27T11:36:54.293Z,35.70
2022-08-27T11:39:40.465Z,36.87
2022-08-27T11:42:18.173Z,39.13
2022-08-27T11:44:49.822Z,37.13
2022-08-27T11:47:22.468Z,35.27
2022-08-27T11:49:54.449Z,39.30
2022-08-27T11:52:29.253Z,34.83
2022-08-27T11:55:11.561Z,41.07
2022-08-27T11:57:40.373Z,36.17
2022-08-27T12:00:21.263Z,31.23
2022-08-27T12:02:59.147Z,33.73
2022-08-27T12:05:36.283Z,31.97
2022-08-27T12:08:18.846Z,32.03
2022-08-27T12:11:04.594Z,32.43
2022-08-27T12:13:38.985Z,33.23
2022-08-27T12:16:16.323Z,31.43
2022-08-27T12:18:56.417Z,35.73
2022-08-27T12:21:36.799Z,36.43
2022-08-27T12:24:44.209Z,33.90
2022-08-27T12:27:37.158Z,34.90
2022-08-27T12:30:21.094Z,35.10
2022-08-27T12:32:52.456Z,39.93
2022-08-27T12:35:23.945Z,32.80
2022-08-27T12:37:57.644Z,42.30
2022-08-27T12:40:29.381Z,38.30
2022-08-27T12:43:07.269Z,39.47
2022-08-27T12:45:44.348Z,39.67
2022-08-27T12:48:12.317Z,38.57
2022-08-27T12:50:40.631Z,35.77
2022-08-27T12:53:42.246Z,39.27
2022-08-27T12:56:27.738Z,42.17
2022-08-27T12:59:10.740Z,39.77
2022-08-27T13:01:52.690Z,43.83
2022-08-27T13:04:25.588Z,37.00
2022-08-27T13:06:53.383Z,44.30
2022-08-27T13:09:29.092Z,42.33
2022-08-27T13:12:00.004Z,39.37
2022-08-27T13:14:32.392Z,40.53
2022-08-27T13:17:05.727Z,42.37
2022-08-27T13:19:35.764Z,40.20
2022-08-27T13:22:07.150Z,38.00
2022-08-27T13:24:36.936Z,44.37
2022-08-27T13:27:07.657Z,38.73
2022-08-27T13:29:35.765Z,36.63
2022-08-27T13:32:04.524Z,43.20
2022-08-27T13:34:37.003Z,36.23
2022-08-27T13:37:07.935Z,33.40
2022-08-27T13:39:37.568Z,32.67
2022-08-27T13:42:09.195Z,35.33
2022-08-27T13:44:40.094Z,30.57
2022-08-27T13:47:11.565Z,34.80
2022-08-27T13:49:40.206Z,33.23
2022-08-27T13:52:24.711Z,29.10
2022-08-27T13:54:59.399Z,34.10
2022-08-27T13:57:31.311Z,29.30
2022-08-27T14:00:11.130Z,34.30
2022-08-27T14:02:39.106Z,33.17
2022-08-27T14:05:13.413Z,30.27
2022-08-27T14:07:47.397Z,31.70
2022-08-27T14:10:30.815Z,30.50
2022-08-27T14:13:02.859Z,30.27
2022-08-27T14:15:34.529Z,27.90
2022-08-27T14:18:04.578Z,33.33
2022-08-27T14:20:32.549Z,29.33
2022-08-27T14:23:00.503Z,30.80
2022-08-27T14:25:28.413Z,28.27
2022-08-27T14:27:57.689Z,30.77
2022-08-27T14:30:28.976Z,28.07
2022-08-27T14:32:59.435Z,31.60
2022-08-27T14:35:27.434Z,28.83
2022-08-27T14:37:55.696Z,30.93
2022-08-27T14:40:23.661Z,28.63
2022-08-27T14:42:51.626Z,32.83
2022-08-27T14:45:19.690Z,31.90
2022-08-27T14:47:48.809Z,33.83
2022-08-27T14:50:16.835Z,29.67
2022-08-27T14:52:44.677Z,37.67
2022-08-27T14:55:14.339Z,33.50
2022-08-27T14:57:42.175Z,32.00
2022-08-27T15:00:11.526Z,36.40
2022-08-27T15:02:44.447Z,33.47
2022-08-27T15:05:18.576Z,38.13
2022-08-27T15:07:47.544Z,28.83
2022-08-27T15:10:16.257Z,28.87
2022-08-27T15:12:44.272Z,37.50
2022-08-27T15:15:12.766Z,34.63
2022-08-27T15:17:40.533Z,38.20
2022-08-27T15:20:13.699Z,32.23
2022-08-27T15:22:52.086Z,35.80
2022-08-27T15:25:21.649Z,42.20
2022-08-27T15:27:49.734Z,34.47
2022-08-27T15:30:18.813Z,29.20
2022-08-27T15:32:48.566Z,31.43
2022-08-27T15:35:19.151Z,35.67
2022-08-27T15:37:47.234Z,33.40
2022-08-27T15:40:18.534Z,29.13
2022-08-27T15:42:48.617Z,26.93
2022-08-27T15:45:17.063Z,26.60
2022-08-27T15:47:44.810Z,29.70
2022-08-27T15:50:12.605Z,29.73
2022-08-27T15:52:42.639Z,26.93
2022-08-27T15:55:22.473Z,31.90
2022-08-27T15:57:50.415Z,31.50
2022-08-27T16:00:20.218Z,34.37
2022-08-27T16:02:48.221Z,30.37
2022-08-27T16:05:18.103Z,28.70
2022-08-27T16:07:46.931Z,27.20
2022-08-27T16:10:17.181Z,29.63
2022-08-27T16:12:45.609Z,31.33
2022-08-27T16:15:14.398Z,27.63
2022-08-27T16:17:43.143Z,30.30
2022-08-27T16:20:13.291Z,28.47
2022-08-27T16:22:41.965Z,33.33
2022-08-27T16:25:12.334Z,32.90
2022-08-27T16:27:44.457Z,26.20
2022-08-27T16:30:13.768Z,34.10
2022-08-27T16:32:41.742Z,30.40
2022-08-27T16:35:10.258Z,32.83
2022-08-27T16:37:37.961Z,35.60
2022-08-27T16:40:06.280Z,36.83
2022-08-27T16:42:34.363Z,35.50
2022-08-27T16:45:03.521Z,37.30
2022-08-27T16:47:31.279Z,33.70
2022-08-27T16:50:24.149Z,32.03
2022-08-27T16:52:53.371Z,37.97
2022-08-27T16:55:22.379Z,36.87
2022-08-27T16:57:50.076Z,45.53
2022-08-27T17:00:20.144Z,41.43
2022-08-27T17:02:47.895Z,41.40
2022-08-27T17:05:34.405Z,42.43
2022-08-27T17:08:03.389Z,51.73
2022-08-27T17:10:35.696Z,45.70
2022-08-27T17:13:03.465Z,45.87
2022-08-27T17:15:32.819Z,44.27
2022-08-27T17:18:00.558Z,41.80
2022-08-27T17:20:30.933Z,39.90
2022-08-27T17:22:59.335Z,46.93
2022-08-27T17:25:30.213Z,45.47
2022-08-27T17:28:00.470Z,42.17
2022-08-27T17:30:28.711Z,47.93
2022-08-27T17:32:57.952Z,42.80
2022-08-27T17:35:25.654Z,51.60
2022-08-27T17:37:53.353Z,43.97
2022-08-27T17:40:21.543Z,43.93
2022-08-27T17:42:49.748Z,39.13
2022-08-27T17:45:17.632Z,42.87
2022-08-27T17:47:45.366Z,40.13
2022-08-27T17:50:14.496Z,44.83
2022-08-27T17:52:42.238Z,47.80
2022-08-27T17:55:10.308Z,44.90
2022-08-27T17:57:41.047Z,45.50
2022-08-27T18:00:11.742Z,46.20
2022-08-27T18:02:43.155Z,50.00
2022-08-27T18:05:13.760Z,43.17
2022-08-27T18:07:44.364Z,48.37
2022-08-27T18:10:15.195Z,48.17
2022-08-27T18:12:43.677Z,51.43
2022-08-27T18:15:15.266Z,51.67
2022-08-27T18:17:43.607Z,47.93
2022-08-27T18:20:13.974Z,43.37
2022-08-27T18:22:48.578Z,50.53
2022-08-27T18:25:17.179Z,46.17
2022-08-27T18:27:47.194Z,49.43
2022-08-27T18:30:16.218Z,45.73
2022-08-27T18:32:44.656Z,50.57
2022-08-27T18:35:17.151Z,52.03
2022-08-27T18:37:46.512Z,55.80
2022-08-27T18:40:16.713Z,52.90
2022-08-27T18:42:44.876Z,50.33
2022-08-27T18:45:15.523Z,52.23
2022-08-27T18:47:44.204Z,49.13
2022-08-27T18:50:17.882Z,50.77
2022-08-27T18:52:48.768Z,50.20
2022-08-27T18:55:18.955Z,47.50
2022-08-27T18:57:47.216Z,43.57
2022-08-27T19:00:19.283Z,45.07
2022-08-27T19:02:52.443Z,46.57
2022-08-27T19:05:24.916Z,46.43
2022-08-27T19:07:54.157Z,50.03
2022-08-27T19:10:22.187Z,45.70
2022-08-27T19:12:50.330Z,46.60
2022-08-27T19:15:18.655Z,51.07
2022-08-27T19:17:52.105Z,47.97
2022-08-27T19:20:20.100Z,48.90
2022-08-27T19:22:48.706Z,48.00
2022-08-27T19:25:18.402Z,43.00
2022-08-27T19:27:47.683Z,47.13
2022-08-27T19:30:16.696Z,53.47
2022-08-27T19:32:45.731Z,46.50
2022-08-27T19:35:15.090Z,48.50
2022-08-27T19:37:46.365Z,50.17
2022-08-27T19:40:23.190Z,56.70
2022-08-27T19:42:51.669Z,50.20
2022-08-27T19:45:23.198Z,44.00
2022-08-27T19:47:53.287Z,52.67
2022-08-27T19:50:21.959Z,52.27
2022-08-27T19:52:50.493Z,45.70
2022-08-27T19:55:18.860Z,52.43
2022-08-27T19:57:48.884Z,47.80
2022-08-27T20:00:20.320Z,53.37
2022-08-27T20:02:48.129Z,50.90
2022-08-27T20:05:19.972Z,58.87
2022-08-27T20:07:49.135Z,49.83
2022-08-27T20:10:17.328Z,50.90
2022-08-27T20:12:47.438Z,54.33
2022-08-27T20:15:15.771Z,60.13
2022-08-27T20:17:43.830Z,51.97
2022-08-27T20:20:13.262Z,62.17
2022-08-27T20:22:41.485Z,57.17
2022-08-27T20:25:10.215Z,53.10
2022-08-27T20:27:38.326Z,59.57
2022-08-27T20:30:10.919Z,55.80
2022-08-27T20:32:39.572Z,59.70
2022-08-27T20:35:09.009Z,61.90
2022-08-27T20:37:42.009Z,48.43
2022-08-27T20:40:14.136Z,48.73
2022-08-27T20:42:42.024Z,49.13
2022-08-27T20:45:12.573Z,52.97
2022-08-27T20:47:41.039Z,52.23
2022-08-27T20:50:09.446Z,46.87
2022-08-27T20:52:40.391Z,49.10
2022-08-27T20:55:09.601Z,48.53
2022-08-27T20:57:37.397Z,50.10
2022-08-27T21:00:21.242Z,47.33
2022-08-27T21:02:50.379Z,53.60
2022-08-27T21:05:20.051Z,52.47
2022-08-27T21:07:48.945Z,44.63
2022-08-27T21:10:17.655Z,43.97
2022-08-27T21:12:46.239Z,50.07
2022-08-27T21:15:14.730Z,48.00
2022-08-27T21:17:42.672Z,45.10
2022-08-27T21:20:13.439Z,48.43
2022-08-27T21:22:43.594Z,44.60
2022-08-27T21:25:16.207Z,48.20
2022-08-27T21:27:43.980Z,44.37
2022-08-27T21:30:13.157Z,45.53
2022-08-27T21:32:40.989Z,44.57
2022-08-27T21:35:09.327Z,43.73
2022-08-27T21:37:38.979Z,42.67
2022-08-27T21:40:08.170Z,44.87
2022-08-27T21:42:35.923Z,40.23
2022-08-27T21:45:03.868Z,42.30
2022-08-27T21:47:31.592Z,44.03
2022-08-27T21:49:59.397Z,40.63
2022-08-27T21:52:27.122Z,41.77
2022-08-27T21:54:56.158Z,41.70
2022-08-27T21:57:24.308Z,38.30
2022-08-27T21:59:52.384Z,37.17
2022-08-27T22:02:39.195Z,42.90
2022-08-27T22:05:09.009Z,43.73
2022-08-27T22:07:36.794Z,37.50
2022-08-27T22:10:07.453Z,37.47
2022-08-27T22:12:35.844Z,38.20
2022-08-27T22:15:04.791Z,38.67
2022-08-27T22:17:32.505Z,39.30
2022-08-27T22:20:00.364Z,36.07
2022-08-27T22:22:30.760Z,35.97
2022-08-27T22:24:59.089Z,38.10
2022-08-27T22:27:28.530Z,36.77
2022-08-27T22:29:56.232Z,37.13
2022-08-27T22:32:23.960Z,37.63
2022-08-27T22:34:52.200Z,35.67
2022-08-27T22:37:19.956Z,33.07
2022-08-27T22:39:47.723Z,34.87
2022-08-27T22:42:17.782Z,37.13
2022-08-27T22:44:47.526Z,34.90
2022-08-27T22:47:15.834Z,38.13
2022-08-27T22:49:44.290Z,38.67
2022-08-27T22:52:12.365Z,36.30
2022-08-27T22:54:40.613Z,36.30
2022-08-27T22:57:10.475Z,33.87
2022-08-27T22:59:38.861Z,34.30
2022-08-27T23:02:10.479Z,34.93
2022-08-27T23:04:54.503Z,37.63
2022-08-27T23:07:23.240Z,35.07
2022-08-27T23:09:50.970Z,34.93
2022-08-27T23:12:19.811Z,32.40
2022-08-27T23:14:47.604Z,31.50
2022-08-27T23:17:17.046Z,29.10
2022-08-27T23:19:45.816Z,31.37
2022-08-27T23:22:14.060Z,33.23
2022-08-27T23:24:55.683Z,30.10
2022-08-27T23:27:32.133Z,27.80
2022-08-27T23:30:01.779Z,37.90
2022-08-27T23:32:31.790Z,34.80
2022-08-27T23:34:59.734Z,30.30
2022-08-27T23:37:27.760Z,30.23
2022-08-27T23:39:56.001Z,28.20
2022-08-27T23:42:24.571Z,26.93
2022-08-27T23:44:52.505Z,27.93
2022-08-27T23:47:20.287Z,35.23
2022-08-27T23:49:49.335Z,28.07
2022-08-27T23:52:17.077Z,30.27
2022-08-27T23:54:44.786Z,29.60
2022-08-27T23:57:12.621Z,28.60
2022-08-27T23:59:40.351Z,26.37
